createdAt,value
2018-05-07T09:00:51.946Z,4.60
2018-05-07T09:03:19.475Z,3.90
2018-05-07T09:05:46.959Z,4.63
2018-05-07T09:08:14.478Z,4.00
2018-05-07T09:10:42.013Z,4.07
2018-05-07T09:13:09.490Z,4.40
2018-05-07T09:15:36.991Z,3.40
2018-05-07T09:18:04.488Z,4.57
2018-05-07T09:20:31.942Z,4.97
2018-05-07T09:22:59.464Z,3.87
2018-05-07T09:25:26.941Z,4.37
2018-05-07T09:27:54.397Z,4.90
2018-05-07T09:30:21.911Z,4.83
2018-05-07T09:32:49.401Z,4.50
2018-05-07T09:35:16.878Z,3.67
2018-05-07T09:37:44.379Z,3.90
2018-05-07T09:40:11.857Z,4.63
2018-05-07T09:42:39.311Z,4.07
2018-05-07T09:45:06.827Z,3.60
2018-05-07T09:47:34.286Z,3.60
2018-05-07T09:50:01.833Z,4.43
2018-05-07T09:52:29.320Z,4.17
2018-05-07T09:54:56.787Z,4.10
2018-05-07T09:57:24.251Z,5.27
2018-05-07T09:59:51.743Z,5.50
2018-05-07T10:02:19.220Z,4.50
2018-05-07T10:04:46.763Z,4.97
2018-05-07T10:07:14.240Z,4.97
2018-05-07T10:09:41.707Z,5.07
2018-05-07T10:12:09.223Z,4.63
2018-05-07T10:14:36.694Z,4.37
2018-05-07T10:17:04.233Z,5.47
2018-05-07T10:19:31.742Z,5.57
2018-05-07T10:21:59.199Z,6.17
2018-05-07T10:24:26.657Z,5.53
2018-05-07T10:26:54.221Z,4.67
2018-05-07T10:29:21.670Z,4.80
2018-05-07T10:31:49.130Z,4.83
2018-05-07T10:34:16.621Z,4.27
2018-05-07T10:36:44.163Z,4.40
2018-05-07T10:39:11.704Z,3.80
2018-05-07T10:41:39.327Z,4.70
2018-05-07T10:44:06.821Z,5.00
2018-05-07T10:46:34.304Z,4.00
2018-05-07T10:49:01.814Z,4.30
2018-05-07T10:51:29.267Z,4.53
2018-05-07T10:53:56.736Z,4.70
2018-05-07T10:56:24.208Z,3.60
2018-05-07T10:58:51.705Z,4.53
2018-05-07T11:01:19.193Z,3.60
2018-05-07T11:03:46.827Z,3.23
2018-05-07T11:06:14.352Z,3.67
2018-05-07T11:08:41.891Z,3.43
2018-05-07T11:11:09.530Z,3.83
2018-05-07T11:13:37.058Z,3.20
2018-05-07T11:16:04.535Z,3.80
2018-05-07T11:18:31.999Z,4.00
2018-05-07T11:20:59.488Z,3.37
2018-05-07T11:23:26.992Z,3.43
2018-05-07T11:25:54.555Z,3.20
2018-05-07T11:28:22.030Z,2.80
2018-05-07T11:30:49.606Z,2.90
2018-05-07T11:33:17.183Z,3.17
2018-05-07T11:35:44.675Z,4.23
2018-05-07T11:38:12.161Z,3.83
2018-05-07T11:40:39.681Z,3.50
2018-05-07T11:43:07.588Z,3.40
2018-05-07T11:45:35.080Z,3.50
2018-05-07T11:48:02.619Z,3.13
2018-05-07T11:50:30.205Z,3.53
2018-05-07T11:52:57.724Z,3.87
2018-05-07T11:55:25.185Z,2.93
2018-05-07T11:57:52.697Z,2.97
2018-05-07T12:00:20.332Z,3.37
2018-05-07T12:02:47.839Z,2.80
2018-05-07T12:05:15.316Z,2.97
2018-05-07T12:07:42.821Z,3.23
2018-05-07T12:10:10.398Z,2.60
2018-05-07T12:12:37.859Z,2.70
2018-05-07T12:15:05.357Z,2.87
2018-05-07T12:17:33.008Z,3.37
2018-05-07T12:20:00.475Z,3.10
2018-05-07T12:22:27.936Z,2.50
2018-05-07T12:24:55.419Z,2.90
2018-05-07T12:27:22.916Z,3.50
2018-05-07T12:29:50.542Z,3.20
2018-05-07T12:32:17.999Z,3.40
2018-05-07T12:34:45.454Z,3.60
2018-05-07T12:37:12.945Z,3.97
2018-05-07T12:39:40.475Z,3.10
2018-05-07T12:42:08.003Z,3.27
2018-05-07T12:44:35.499Z,2.83
2018-05-07T12:47:03.002Z,2.60
2018-05-07T12:49:30.615Z,2.40
2018-05-07T12:51:58.070Z,2.50
2018-05-07T12:54:25.531Z,3.20
2018-05-07T12:56:53.033Z,2.30
2018-05-07T12:59:20.566Z,2.20
2018-05-07T13:01:48.067Z,2.47
2018-05-07T13:04:22.703Z,2.10
2018-05-07T13:06:50.269Z,2.90
2018-05-07T13:09:17.729Z,3.10
2018-05-07T13:11:45.403Z,2.70
2018-05-07T13:14:12.993Z,2.30
2018-05-07T13:16:40.467Z,2.87
2018-05-07T13:19:07.958Z,1.97
2018-05-07T13:21:35.409Z,2.30
2018-05-07T13:24:02.889Z,1.80
2018-05-07T13:26:30.422Z,2.07
2018-05-07T13:28:57.878Z,2.30
2018-05-07T13:31:25.403Z,2.00
2018-05-07T13:33:53.246Z,2.03
2018-05-07T13:36:20.686Z,2.37
2018-05-07T13:38:48.148Z,1.90
2018-05-07T13:41:15.604Z,1.90
2018-05-07T13:43:43.384Z,2.10
2018-05-07T13:46:10.883Z,1.63
2018-05-07T13:48:38.334Z,1.70
2018-05-07T13:51:05.938Z,2.50
2018-05-07T13:53:33.359Z,1.97
2018-05-07T13:56:00.810Z,1.90
2018-05-07T13:58:28.409Z,1.70
2018-05-07T14:00:55.926Z,1.87
2018-05-07T14:03:23.406Z,1.57
2018-05-07T14:05:50.873Z,1.50
2018-05-07T14:08:18.333Z,1.90
2018-05-07T14:10:45.818Z,1.70
2018-05-07T14:13:13.280Z,1.70
2018-05-07T14:15:40.729Z,1.60
2018-05-07T14:18:08.362Z,2.20
2018-05-07T14:20:35.935Z,1.77
2018-05-07T14:23:03.397Z,1.47
2018-05-07T14:25:30.919Z,1.33
2018-05-07T14:27:58.381Z,1.53
2018-05-07T14:30:25.846Z,1.27
2018-05-07T14:32:53.309Z,1.50
2018-05-07T14:35:20.781Z,1.80
2018-05-07T14:37:49.690Z,1.30
2018-05-07T14:40:17.139Z,1.33
2018-05-07T14:42:44.702Z,1.33
2018-05-07T14:45:12.192Z,1.17
2018-05-07T14:47:39.647Z,1.07
2018-05-07T14:50:07.136Z,1.43
2018-05-07T14:52:34.621Z,1.33
2018-05-07T14:55:02.100Z,1.40
2018-05-07T14:57:29.643Z,1.20
2018-05-07T14:59:57.110Z,1.20
2018-05-07T15:02:24.570Z,1.50
2018-05-07T15:04:52.066Z,1.77
2018-05-07T15:07:19.555Z,1.87
2018-05-07T15:09:47.019Z,1.43
2018-05-07T15:12:14.501Z,1.60
2018-05-07T15:14:41.953Z,2.00
2018-05-07T15:17:09.403Z,1.80
2018-05-07T15:19:36.912Z,2.00
2018-05-07T15:22:04.392Z,1.60
2018-05-07T15:24:43.587Z,1.97
2018-05-07T15:27:11.199Z,1.67
2018-05-07T15:29:38.684Z,1.80
2018-05-07T15:32:06.166Z,2.00
2018-05-07T15:34:33.687Z,1.80
2018-05-07T15:37:01.179Z,2.00
2018-05-07T15:39:28.714Z,2.00
2018-05-07T15:41:56.204Z,1.97
2018-05-07T15:44:23.683Z,2.40
2018-05-07T15:46:51.182Z,3.13
2018-05-07T15:49:18.687Z,2.13
2018-05-07T15:51:46.116Z,2.20
2018-05-07T15:54:13.646Z,2.43
2018-05-07T15:56:41.143Z,2.20
2018-05-07T15:59:08.722Z,2.23
2018-05-07T16:01:36.231Z,1.93
2018-05-07T16:04:03.717Z,2.27
2018-05-07T16:06:31.203Z,2.07
2018-05-07T16:08:58.732Z,2.00
2018-05-07T16:11:27.464Z,1.70
2018-05-07T16:13:54.919Z,1.60
2018-05-07T16:16:22.832Z,1.83
2018-05-07T16:18:50.305Z,1.57
2018-05-07T16:21:17.823Z,2.07
2018-05-07T16:23:45.347Z,1.60
2018-05-07T16:26:12.838Z,2.00
2018-05-07T16:28:40.319Z,3.13
2018-05-07T16:31:07.916Z,2.13
2018-05-07T16:33:35.310Z,2.30
2018-05-07T16:36:02.759Z,2.03
2018-05-07T16:38:30.363Z,2.37
2018-05-07T16:40:57.771Z,1.93
2018-05-07T16:43:25.257Z,1.50
2018-05-07T16:45:52.747Z,2.40
2018-05-07T16:48:20.280Z,2.20
2018-05-07T16:50:47.717Z,2.13
2018-05-07T16:53:15.450Z,1.90
2018-05-07T16:55:42.796Z,2.23
2018-05-07T16:58:10.258Z,2.57
2018-05-07T17:00:38.245Z,2.33
2018-05-07T17:03:05.819Z,2.30
2018-05-07T17:05:33.378Z,2.43
2018-05-07T17:08:00.869Z,2.40
2018-05-07T17:10:28.331Z,2.10
2018-05-07T17:12:55.800Z,2.00
2018-05-07T17:15:23.294Z,2.33
2018-05-07T17:17:50.807Z,2.60
2018-05-07T17:20:18.401Z,2.80
2018-05-07T17:22:45.940Z,2.60
2018-05-07T17:25:13.445Z,2.87
2018-05-07T17:27:40.907Z,2.60
2018-05-07T17:30:08.530Z,2.83
2018-05-07T17:32:35.955Z,3.13
2018-05-07T17:35:03.785Z,4.20
2018-05-07T17:37:31.388Z,2.70
2018-05-07T17:39:58.917Z,2.80
2018-05-07T17:42:26.494Z,3.20
2018-05-07T17:48:10.520Z,2.77
2018-05-07T17:50:37.938Z,3.77
2018-05-07T17:53:05.397Z,3.90
2018-05-07T17:55:32.927Z,2.87
2018-05-07T17:58:00.398Z,3.50
2018-05-07T18:00:27.851Z,3.00
2018-05-07T18:02:55.321Z,3.67
2018-05-07T18:05:22.785Z,3.10
2018-05-07T18:07:50.351Z,3.40
2018-05-07T18:10:18.125Z,4.47
2018-05-07T18:12:45.633Z,3.70
2018-05-07T18:15:13.233Z,3.60
2018-05-07T18:17:41.120Z,3.23
2018-05-07T18:20:08.575Z,3.00
2018-05-07T18:22:36.131Z,3.17
2018-05-07T18:25:03.838Z,3.57
2018-05-07T18:27:31.343Z,4.20
2018-05-07T18:29:58.828Z,3.10
2018-05-07T18:32:26.364Z,3.83
2018-05-07T18:34:54.095Z,3.40
2018-05-07T18:37:21.587Z,3.13
2018-05-07T18:39:49.097Z,3.70
2018-05-07T18:42:16.668Z,3.60
2018-05-07T18:47:39.936Z,3.70
2018-05-07T18:50:07.462Z,3.10
2018-05-07T18:52:34.966Z,3.73
2018-05-07T18:55:02.562Z,3.50
2018-05-07T18:57:30.072Z,3.20
2018-05-07T18:59:57.554Z,2.90
2018-05-07T19:02:25.051Z,3.30
2018-05-07T19:04:52.665Z,3.73
2018-05-07T19:07:20.307Z,3.53
2018-05-07T19:09:47.874Z,3.23
2018-05-07T19:12:15.428Z,3.53
2018-05-07T19:14:42.911Z,3.50
2018-05-07T19:17:10.640Z,3.50
2018-05-07T19:19:38.191Z,3.10
2018-05-07T19:22:05.649Z,4.10
2018-05-07T19:24:33.152Z,3.67
2018-05-07T19:27:00.816Z,3.73
2018-05-07T19:29:28.287Z,3.07
2018-05-07T19:31:55.775Z,2.50
2018-05-07T19:34:23.249Z,3.30
2018-05-07T19:36:50.752Z,3.50
2018-05-07T19:39:18.311Z,3.00
2018-05-07T19:41:45.839Z,3.60
2018-05-07T19:44:13.307Z,2.83
2018-05-07T19:46:40.786Z,3.93
2018-05-07T19:49:08.250Z,3.37
2018-05-07T19:51:35.784Z,3.40
2018-05-07T19:54:03.291Z,3.80
2018-05-07T19:56:31.501Z,3.23
2018-05-07T19:58:58.996Z,3.97
2018-05-07T20:01:26.511Z,3.20
2018-05-07T20:03:54.050Z,3.63
2018-05-07T20:06:21.463Z,3.40
2018-05-07T20:08:49.129Z,3.90
2018-05-07T20:11:16.600Z,3.30
2018-05-07T20:13:44.071Z,3.87
2018-05-07T20:16:11.764Z,3.57
2018-05-07T20:18:39.254Z,3.90
2018-05-07T20:21:06.795Z,3.37
2018-05-07T20:23:35.842Z,2.93
2018-05-07T20:26:03.391Z,3.40
2018-05-07T20:28:32.759Z,3.30
2018-05-07T20:31:00.470Z,3.43
2018-05-07T20:33:28.091Z,3.67
2018-05-07T20:35:56.391Z,3.10
2018-05-07T20:38:24.665Z,3.40
2018-05-07T20:40:52.235Z,4.10
2018-05-07T20:43:19.818Z,3.53
2018-05-07T20:45:47.374Z,3.47
2018-05-07T20:48:16.531Z,2.77
2018-05-07T20:50:43.856Z,2.53
2018-05-07T20:53:11.352Z,3.23
2018-05-07T20:55:38.858Z,2.97
2018-05-07T20:58:06.398Z,3.40
2018-05-07T21:00:33.882Z,3.40
2018-05-07T21:03:01.464Z,2.90
2018-05-07T21:05:29.019Z,3.20
2018-05-07T21:07:56.484Z,3.13
2018-05-07T21:10:24.000Z,3.30
2018-05-07T21:12:51.490Z,2.80
2018-05-07T21:15:18.962Z,2.87
2018-05-07T21:17:46.438Z,2.93
2018-05-07T21:20:13.924Z,2.87
2018-05-07T21:22:41.430Z,3.10
2018-05-07T21:25:08.955Z,2.83
2018-05-07T21:27:36.427Z,2.50
2018-05-07T21:30:03.891Z,3.27
2018-05-07T21:32:31.422Z,3.30
2018-05-07T21:35:01.055Z,3.10
2018-05-07T21:37:28.876Z,3.27
2018-05-07T21:39:56.375Z,2.93
2018-05-07T21:42:23.854Z,2.70
2018-05-07T21:44:51.308Z,2.70
2018-05-07T21:47:18.778Z,2.40
2018-05-07T21:49:46.248Z,2.30
2018-05-07T21:52:13.711Z,2.67
2018-05-07T21:54:41.197Z,2.70
2018-05-07T21:57:08.660Z,3.07
2018-05-07T21:59:36.125Z,2.70
2018-05-07T22:02:03.604Z,2.97
2018-05-07T22:04:31.062Z,2.57
2018-05-07T22:06:58.525Z,2.63
2018-05-07T22:09:25.991Z,2.40
2018-05-07T22:11:53.446Z,2.33
2018-05-07T22:14:20.958Z,2.40
2018-05-07T22:16:48.426Z,2.50
2018-05-07T22:19:15.887Z,2.57
2018-05-07T22:21:43.550Z,2.53
2018-05-07T22:24:11.009Z,3.10
2018-05-07T22:26:38.496Z,2.70
2018-05-07T22:29:05.993Z,2.60
2018-05-07T22:31:33.475Z,2.70
2018-05-07T22:34:01.051Z,2.67
2018-05-07T22:36:28.510Z,2.53
2018-05-07T22:38:55.956Z,2.93
2018-05-07T22:41:23.431Z,2.47
2018-05-07T22:43:52.199Z,2.43
2018-05-07T22:46:21.213Z,2.70
2018-05-07T22:48:48.663Z,2.00
2018-05-07T22:51:16.104Z,2.33
2018-05-07T22:53:43.593Z,2.90
2018-05-07T22:56:11.164Z,2.70
2018-05-07T22:58:38.619Z,2.30
2018-05-07T23:01:06.069Z,2.53
2018-05-07T23:03:33.527Z,2.10
2018-05-07T23:06:00.974Z,3.00
2018-05-07T23:08:28.457Z,2.37
2018-05-07T23:10:55.910Z,3.13
2018-05-07T23:13:23.366Z,4.10
2018-05-07T23:15:50.844Z,2.93
2018-05-07T23:18:18.305Z,2.50
2018-05-07T23:20:45.766Z,2.53
2018-05-07T23:23:13.325Z,2.93
2018-05-07T23:25:40.784Z,2.60
2018-05-07T23:28:08.239Z,2.73
2018-05-07T23:30:35.701Z,2.30
2018-05-07T23:33:03.155Z,2.83
2018-05-07T23:35:30.610Z,2.40
2018-05-07T23:37:58.072Z,2.20
2018-05-07T23:40:25.546Z,3.10
2018-05-07T23:42:53.009Z,2.97
2018-05-07T23:45:29.906Z,2.50
2018-05-07T23:47:57.374Z,2.80
2018-05-07T23:50:24.839Z,3.10
2018-05-07T23:52:52.317Z,2.70
2018-05-07T23:55:19.789Z,2.43
2018-05-07T23:57:47.234Z,2.60
